sensor_id;sensor_type;location;lat;lon;timestamp;P1;durP1;ratioP1;P2;durP2;ratioP2
59512;SDS011;45330;51.634;5.562;2022-11-28T00:01:48;18.02;;;7.75;;
59512;SDS011;45330;51.634;5.562;2022-11-28T00:04:14;19.67;;;7.80;;
59512;SDS011;45330;51.634;5.562;2022-11-28T00:06:41;19.10;;;7.95;;
59512;SDS011;45330;51.634;5.562;2022-11-28T00:09:10;18.25;;;7.38;;
59512;SDS011;45330;51.634;5.562;2022-11-28T00:11:39;18.48;;;7.55;;
59512;SDS011;45330;51.634;5.562;2022-11-28T00:14:05;18.98;;;7.55;;
59512;SDS011;45330;51.634;5.562;2022-11-28T00:16:31;19.65;;;7.82;;
59512;SDS011;45330;51.634;5.562;2022-11-28T00:18:57;19.25;;;7.30;;
59512;SDS011;45330;51.634;5.562;2022-11-28T00:21:24;18.98;;;7.30;;
59512;SDS011;45330;51.634;5.562;2022-11-28T00:23:49;18.17;;;7.13;;
59512;SDS011;45330;51.634;5.562;2022-11-28T00:28:45;18.17;;;7.38;;
59512;SDS011;45330;51.634;5.562;2022-11-28T00:31:12;17.65;;;6.75;;
59512;SDS011;45330;51.634;5.562;2022-11-28T00:33:38;18.92;;;7.20;;
59512;SDS011;45330;51.634;5.562;2022-11-28T00:36:04;17.05;;;6.82;;
59512;SDS011;45330;51.634;5.562;2022-11-28T00:38:30;16.80;;;6.85;;
59512;SDS011;45330;51.634;5.562;2022-11-28T00:40:59;25.05;;;7.45;;
59512;SDS011;45330;51.634;5.562;2022-11-28T00:43:26;20.02;;;7.03;;
59512;SDS011;45330;51.634;5.562;2022-11-28T00:45:52;17.30;;;6.90;;
59512;SDS011;45330;51.634;5.562;2022-11-28T00:48:17;17.65;;;6.75;;
59512;SDS011;45330;51.634;5.562;2022-11-28T00:50:43;17.15;;;6.85;;
59512;SDS011;45330;51.634;5.562;2022-11-28T00:53:08;17.38;;;6.50;;
59512;SDS011;45330;51.634;5.562;2022-11-28T00:55:36;16.80;;;6.28;;
59512;SDS011;45330;51.634;5.562;2022-11-28T00:58:02;15.43;;;6.25;;
59512;SDS011;45330;51.634;5.562;2022-11-28T01:00:28;16.75;;;6.38;;
59512;SDS011;45330;51.634;5.562;2022-11-28T01:02:53;16.73;;;6.55;;
59512;SDS011;45330;51.634;5.562;2022-11-28T01:05:18;17.52;;;5.80;;
59512;SDS011;45330;51.634;5.562;2022-11-28T01:07:44;17.17;;;6.75;;
59512;SDS011;45330;51.634;5.562;2022-11-28T01:10:09;18.20;;;6.60;;
59512;SDS011;45330;51.634;5.562;2022-11-28T01:12:35;15.52;;;6.05;;
59512;SDS011;45330;51.634;5.562;2022-11-28T01:15:01;16.33;;;6.22;;
59512;SDS011;45330;51.634;5.562;2022-11-28T01:17:27;16.00;;;6.40;;
59512;SDS011;45330;51.634;5.562;2022-11-28T01:19:52;15.13;;;5.88;;
59512;SDS011;45330;51.634;5.562;2022-11-28T01:22:17;17.15;;;6.57;;
59512;SDS011;45330;51.634;5.562;2022-11-28T01:24:43;15.48;;;6.50;;
59512;SDS011;45330;51.634;5.562;2022-11-28T01:27:08;15.57;;;5.95;;
59512;SDS011;45330;51.634;5.562;2022-11-28T01:29:33;15.77;;;6.15;;
59512;SDS011;45330;51.634;5.562;2022-11-28T01:31:59;15.32;;;5.93;;
59512;SDS011;45330;51.634;5.562;2022-11-28T01:34:24;14.18;;;5.15;;
59512;SDS011;45330;51.634;5.562;2022-11-28T01:36:49;16.05;;;6.03;;
59512;SDS011;45330;51.634;5.562;2022-11-28T01:39:15;16.83;;;6.10;;
59512;SDS011;45330;51.634;5.562;2022-11-28T01:41:40;17.35;;;6.00;;
59512;SDS011;45330;51.634;5.562;2022-11-28T01:46:51;16.70;;;6.53;;
59512;SDS011;45330;51.634;5.562;2022-11-28T01:49:17;18.05;;;6.82;;
59512;SDS011;45330;51.634;5.562;2022-11-28T01:51:51;16.13;;;6.28;;
59512;SDS011;45330;51.634;5.562;2022-11-28T01:54:20;18.00;;;6.80;;
59512;SDS011;45330;51.634;5.562;2022-11-28T01:56:49;17.27;;;6.40;;
59512;SDS011;45330;51.634;5.562;2022-11-28T01:59:19;18.15;;;6.63;;
59512;SDS011;45330;51.634;5.562;2022-11-28T02:04:15;17.67;;;6.32;;
59512;SDS011;45330;51.634;5.562;2022-11-28T02:06:41;16.77;;;6.38;;
59512;SDS011;45330;51.634;5.562;2022-11-28T02:09:13;15.75;;;6.47;;
59512;SDS011;45330;51.634;5.562;2022-11-28T02:11:48;18.02;;;6.88;;
59512;SDS011;45330;51.634;5.562;2022-11-28T02:33:16;17.95;;;6.95;;
59512;SDS011;45330;51.634;5.562;2022-11-28T02:39:01;20.00;;;7.30;;
59512;SDS011;45330;51.634;5.562;2022-11-28T02:43:51;19.83;;;7.15;;
59512;SDS011;45330;51.634;5.562;2022-11-28T02:46:31;18.00;;;6.97;;
59512;SDS011;45330;51.634;5.562;2022-11-28T02:49:06;17.17;;;6.43;;
59512;SDS011;45330;51.634;5.562;2022-11-28T02:51:39;17.88;;;5.95;;
59512;SDS011;45330;51.634;5.562;2022-11-28T02:54:09;16.25;;;6.50;;
59512;SDS011;45330;51.634;5.562;2022-11-28T02:56:37;16.73;;;5.88;;
59512;SDS011;45330;51.634;5.562;2022-11-28T02:59:03;17.30;;;6.00;;
59512;SDS011;45330;51.634;5.562;2022-11-28T03:01:34;16.45;;;5.63;;
59512;SDS011;45330;51.634;5.562;2022-11-28T03:15:31;17.88;;;5.38;;
59512;SDS011;45330;51.634;5.562;2022-11-28T03:20:59;16.42;;;5.55;;
59512;SDS011;45330;51.634;5.562;2022-11-28T03:23:32;15.82;;;5.30;;
59512;SDS011;45330;51.634;5.562;2022-11-28T03:31:31;15.77;;;5.32;;
59512;SDS011;45330;51.634;5.562;2022-11-28T03:34:01;18.83;;;6.10;;
59512;SDS011;45330;51.634;5.562;2022-11-28T03:36:30;15.77;;;5.28;;
59512;SDS011;45330;51.634;5.562;2022-11-28T03:39:08;14.80;;;5.55;;
59512;SDS011;45330;51.634;5.562;2022-11-28T03:41:43;17.02;;;5.63;;
59512;SDS011;45330;51.634;5.562;2022-11-28T03:44:15;15.15;;;5.50;;
59512;SDS011;45330;51.634;5.562;2022-11-28T03:46:48;17.05;;;5.90;;
59512;SDS011;45330;51.634;5.562;2022-11-28T03:49:18;13.35;;;5.32;;
59512;SDS011;45330;51.634;5.562;2022-11-28T03:51:52;16.48;;;5.95;;
59512;SDS011;45330;51.634;5.562;2022-11-28T03:59:32;16.23;;;5.57;;
59512;SDS011;45330;51.634;5.562;2022-11-28T04:04:49;18.33;;;6.13;;
59512;SDS011;45330;51.634;5.562;2022-11-28T04:10:05;16.73;;;6.30;;
59512;SDS011;45330;51.634;5.562;2022-11-28T04:17:59;18.80;;;6.00;;
59512;SDS011;45330;51.634;5.562;2022-11-28T04:20:33;17.10;;;6.43;;
59512;SDS011;45330;51.634;5.562;2022-11-28T04:23:05;18.23;;;6.20;;
59512;SDS011;45330;51.634;5.562;2022-11-28T04:28:04;17.20;;;5.97;;
59512;SDS011;45330;51.634;5.562;2022-11-28T04:30:35;16.83;;;6.25;;
59512;SDS011;45330;51.634;5.562;2022-11-28T04:33:03;18.00;;;6.30;;
59512;SDS011;45330;51.634;5.562;2022-11-28T04:35:32;18.27;;;6.78;;
59512;SDS011;45330;51.634;5.562;2022-11-28T04:38:01;16.97;;;6.17;;
59512;SDS011;45330;51.634;5.562;2022-11-28T04:40:32;20.08;;;6.88;;
59512;SDS011;45330;51.634;5.562;2022-11-28T04:43:03;17.92;;;6.63;;
59512;SDS011;45330;51.634;5.562;2022-11-28T04:45:36;16.80;;;5.97;;
59512;SDS011;45330;51.634;5.562;2022-11-28T04:48:08;18.25;;;6.75;;
59512;SDS011;45330;51.634;5.562;2022-11-28T04:50:39;19.88;;;7.10;;
59512;SDS011;45330;51.634;5.562;2022-11-28T04:53:15;18.05;;;6.72;;
59512;SDS011;45330;51.634;5.562;2022-11-28T04:55:48;17.92;;;6.50;;
59512;SDS011;45330;51.634;5.562;2022-11-28T04:58:38;17.92;;;6.70;;
59512;SDS011;45330;51.634;5.562;2022-11-28T05:01:08;17.98;;;7.03;;
59512;SDS011;45330;51.634;5.562;2022-11-28T05:03:38;17.90;;;6.70;;
59512;SDS011;45330;51.634;5.562;2022-11-28T05:06:04;17.00;;;6.60;;
59512;SDS011;45330;51.634;5.562;2022-11-28T05:08:30;17.58;;;6.47;;
59512;SDS011;45330;51.634;5.562;2022-11-28T05:10:55;18.50;;;6.65;;
59512;SDS011;45330;51.634;5.562;2022-11-28T05:13:21;18.83;;;6.90;;
59512;SDS011;45330;51.634;5.562;2022-11-28T05:15:46;17.55;;;6.68;;
59512;SDS011;45330;51.634;5.562;2022-11-28T05:18:11;16.50;;;6.32;;
59512;SDS011;45330;51.634;5.562;2022-11-28T05:20:37;17.10;;;6.90;;
59512;SDS011;45330;51.634;5.562;2022-11-28T05:23:03;16.00;;;6.10;;
59512;SDS011;45330;51.634;5.562;2022-11-28T05:25:28;19.27;;;6.40;;
59512;SDS011;45330;51.634;5.562;2022-11-28T05:27:54;17.38;;;6.22;;
59512;SDS011;45330;51.634;5.562;2022-11-28T05:30:19;18.10;;;6.45;;
59512;SDS011;45330;51.634;5.562;2022-11-28T05:32:45;17.88;;;6.68;;
59512;SDS011;45330;51.634;5.562;2022-11-28T05:35:11;18.40;;;6.78;;
59512;SDS011;45330;51.634;5.562;2022-11-28T05:37:36;17.15;;;6.55;;
59512;SDS011;45330;51.634;5.562;2022-11-28T05:40:02;19.02;;;6.68;;
59512;SDS011;45330;51.634;5.562;2022-11-28T05:42:30;17.30;;;6.80;;
59512;SDS011;45330;51.634;5.562;2022-11-28T05:44:57;15.35;;;6.15;;
59512;SDS011;45330;51.634;5.562;2022-11-28T05:47:22;17.73;;;6.80;;
59512;SDS011;45330;51.634;5.562;2022-11-28T05:49:49;17.48;;;6.60;;
59512;SDS011;45330;51.634;5.562;2022-11-28T05:52:14;18.67;;;6.82;;
59512;SDS011;45330;51.634;5.562;2022-11-28T05:54:40;19.92;;;7.75;;
59512;SDS011;45330;51.634;5.562;2022-11-28T05:57:05;15.63;;;6.25;;
59512;SDS011;45330;51.634;5.562;2022-11-28T05:59:31;18.80;;;7.03;;
59512;SDS011;45330;51.634;5.562;2022-11-28T06:01:57;17.08;;;6.57;;
59512;SDS011;45330;51.634;5.562;2022-11-28T06:04:22;17.10;;;6.57;;
59512;SDS011;45330;51.634;5.562;2022-11-28T06:06:48;17.65;;;6.80;;
59512;SDS011;45330;51.634;5.562;2022-11-28T06:09:15;17.20;;;6.63;;
59512;SDS011;45330;51.634;5.562;2022-11-28T06:11:40;17.52;;;6.63;;
59512;SDS011;45330;51.634;5.562;2022-11-28T06:14:05;19.83;;;7.50;;
59512;SDS011;45330;51.634;5.562;2022-11-28T06:16:31;16.65;;;6.70;;
59512;SDS011;45330;51.634;5.562;2022-11-28T06:19:00;19.83;;;7.63;;
59512;SDS011;45330;51.634;5.562;2022-11-28T06:21:27;18.70;;;7.00;;
59512;SDS011;45330;51.634;5.562;2022-11-28T06:23:53;19.02;;;7.32;;
59512;SDS011;45330;51.634;5.562;2022-11-28T06:26:21;22.08;;;7.47;;
59512;SDS011;45330;51.634;5.562;2022-11-28T06:28:47;18.60;;;7.43;;
59512;SDS011;45330;51.634;5.562;2022-11-28T06:31:14;18.77;;;7.82;;
59512;SDS011;45330;51.634;5.562;2022-11-28T06:33:43;19.08;;;7.60;;
59512;SDS011;45330;51.634;5.562;2022-11-28T06:36:09;17.95;;;7.38;;
59512;SDS011;45330;51.634;5.562;2022-11-28T06:38:36;19.05;;;8.07;;
59512;SDS011;45330;51.634;5.562;2022-11-28T06:41:03;18.92;;;7.75;;
59512;SDS011;45330;51.634;5.562;2022-11-28T06:43:30;19.63;;;7.70;;
59512;SDS011;45330;51.634;5.562;2022-11-28T06:45:56;19.27;;;7.85;;
59512;SDS011;45330;51.634;5.562;2022-11-28T06:48:22;19.10;;;8.02;;
59512;SDS011;45330;51.634;5.562;2022-11-28T06:50:48;19.35;;;7.63;;
59512;SDS011;45330;51.634;5.562;2022-11-28T06:53:14;21.70;;;8.63;;
59512;SDS011;45330;51.634;5.562;2022-11-28T06:55:40;19.40;;;8.63;;
59512;SDS011;45330;51.634;5.562;2022-11-28T06:58:06;19.27;;;8.40;;
59512;SDS011;45330;51.634;5.562;2022-11-28T07:00:32;20.38;;;8.48;;
59512;SDS011;45330;51.634;5.562;2022-11-28T07:02:57;19.58;;;8.40;;
59512;SDS011;45330;51.634;5.562;2022-11-28T07:05:23;19.25;;;8.27;;
59512;SDS011;45330;51.634;5.562;2022-11-28T07:07:51;21.73;;;8.80;;
59512;SDS011;45330;51.634;5.562;2022-11-28T07:10:17;21.35;;;9.02;;
59512;SDS011;45330;51.634;5.562;2022-11-28T07:12:43;21.33;;;9.02;;
59512;SDS011;45330;51.634;5.562;2022-11-28T07:15:08;21.38;;;9.30;;
59512;SDS011;45330;51.634;5.562;2022-11-28T07:17:34;21.73;;;9.10;;
59512;SDS011;45330;51.634;5.562;2022-11-28T07:19:59;22.80;;;10.02;;
59512;SDS011;45330;51.634;5.562;2022-11-28T07:22:25;21.40;;;9.35;;
59512;SDS011;45330;51.634;5.562;2022-11-28T07:24:50;22.60;;;9.60;;
59512;SDS011;45330;51.634;5.562;2022-11-28T07:27:16;21.60;;;9.57;;
59512;SDS011;45330;51.634;5.562;2022-11-28T07:29:42;21.67;;;9.60;;
59512;SDS011;45330;51.634;5.562;2022-11-28T07:32:07;22.40;;;9.30;;
59512;SDS011;45330;51.634;5.562;2022-11-28T07:34:33;22.23;;;9.50;;
59512;SDS011;45330;51.634;5.562;2022-11-28T07:36:58;20.15;;;8.88;;
59512;SDS011;45330;51.634;5.562;2022-11-28T07:39:24;22.10;;;9.68;;
59512;SDS011;45330;51.634;5.562;2022-11-28T07:41:50;22.42;;;9.88;;
59512;SDS011;45330;51.634;5.562;2022-11-28T07:44:15;22.00;;;9.70;;
59512;SDS011;45330;51.634;5.562;2022-11-28T07:46:42;21.30;;;9.82;;
59512;SDS011;45330;51.634;5.562;2022-11-28T07:49:09;22.20;;;10.25;;
59512;SDS011;45330;51.634;5.562;2022-11-28T07:51:35;22.83;;;10.80;;
59512;SDS011;45330;51.634;5.562;2022-11-28T07:54:01;24.48;;;10.68;;
59512;SDS011;45330;51.634;5.562;2022-11-28T07:56:28;24.30;;;11.65;;
59512;SDS011;45330;51.634;5.562;2022-11-28T07:58:55;24.45;;;11.80;;
59512;SDS011;45330;51.634;5.562;2022-11-28T08:01:22;22.23;;;10.73;;
59512;SDS011;45330;51.634;5.562;2022-11-28T08:03:49;24.10;;;11.65;;
59512;SDS011;45330;51.634;5.562;2022-11-28T08:06:16;25.35;;;11.65;;
59512;SDS011;45330;51.634;5.562;2022-11-28T08:08:43;25.13;;;11.63;;
59512;SDS011;45330;51.634;5.562;2022-11-28T08:11:11;23.60;;;11.63;;
59512;SDS011;45330;51.634;5.562;2022-11-28T08:13:37;24.98;;;12.02;;
59512;SDS011;45330;51.634;5.562;2022-11-28T08:16:04;27.70;;;12.90;;
59512;SDS011;45330;51.634;5.562;2022-11-28T08:18:31;25.52;;;12.93;;
59512;SDS011;45330;51.634;5.562;2022-11-28T08:21:04;25.08;;;12.20;;
59512;SDS011;45330;51.634;5.562;2022-11-28T08:23:31;25.13;;;13.02;;
59512;SDS011;45330;51.634;5.562;2022-11-28T08:25:59;25.80;;;12.68;;
59512;SDS011;45330;51.634;5.562;2022-11-28T08:28:26;26.20;;;13.27;;
59512;SDS011;45330;51.634;5.562;2022-11-28T08:30:52;26.75;;;13.02;;
59512;SDS011;45330;51.634;5.562;2022-11-28T08:33:17;25.38;;;12.68;;
59512;SDS011;45330;51.634;5.562;2022-11-28T08:35:43;25.73;;;13.15;;
59512;SDS011;45330;51.634;5.562;2022-11-28T08:38:08;28.70;;;13.75;;
59512;SDS011;45330;51.634;5.562;2022-11-28T08:40:33;25.70;;;13.27;;
59512;SDS011;45330;51.634;5.562;2022-11-28T08:42:59;26.88;;;13.43;;
59512;SDS011;45330;51.634;5.562;2022-11-28T08:45:24;27.40;;;14.50;;
59512;SDS011;45330;51.634;5.562;2022-11-28T08:47:49;28.20;;;14.98;;
59512;SDS011;45330;51.634;5.562;2022-11-28T08:50:15;26.98;;;13.70;;
59512;SDS011;45330;51.634;5.562;2022-11-28T08:52:41;26.48;;;13.05;;
59512;SDS011;45330;51.634;5.562;2022-11-28T08:55:06;29.88;;;14.38;;
59512;SDS011;45330;51.634;5.562;2022-11-28T08:57:32;27.08;;;13.48;;
59512;SDS011;45330;51.634;5.562;2022-11-28T08:59:57;27.27;;;13.82;;
59512;SDS011;45330;51.634;5.562;2022-11-28T09:02:22;25.33;;;13.30;;
59512;SDS011;45330;51.634;5.562;2022-11-28T09:04:48;27.40;;;14.65;;
59512;SDS011;45330;51.634;5.562;2022-11-28T09:07:13;26.52;;;14.05;;
59512;SDS011;45330;51.634;5.562;2022-11-28T09:09:39;27.35;;;14.10;;
59512;SDS011;45330;51.634;5.562;2022-11-28T09:12:04;27.13;;;13.88;;
59512;SDS011;45330;51.634;5.562;2022-11-28T09:14:29;26.88;;;14.20;;
59512;SDS011;45330;51.634;5.562;2022-11-28T09:16:55;27.65;;;13.85;;
59512;SDS011;45330;51.634;5.562;2022-11-28T09:19:21;26.33;;;13.82;;
59512;SDS011;45330;51.634;5.562;2022-11-28T09:21:47;28.33;;;14.48;;
59512;SDS011;45330;51.634;5.562;2022-11-28T09:24:13;27.15;;;13.93;;
59512;SDS011;45330;51.634;5.562;2022-11-28T09:26:38;27.17;;;14.18;;
59512;SDS011;45330;51.634;5.562;2022-11-28T09:29:03;28.40;;;14.15;;
59512;SDS011;45330;51.634;5.562;2022-11-28T09:31:29;27.92;;;14.15;;
59512;SDS011;45330;51.634;5.562;2022-11-28T09:33:54;27.80;;;14.25;;
59512;SDS011;45330;51.634;5.562;2022-11-28T09:36:23;29.45;;;14.70;;
59512;SDS011;45330;51.634;5.562;2022-11-28T09:38:49;26.95;;;14.73;;
59512;SDS011;45330;51.634;5.562;2022-11-28T09:41:37;27.77;;;14.38;;
59512;SDS011;45330;51.634;5.562;2022-11-28T09:44:17;31.00;;;14.93;;
59512;SDS011;45330;51.634;5.562;2022-11-28T09:46:48;30.33;;;15.07;;
59512;SDS011;45330;51.634;5.562;2022-11-28T09:49:28;28.52;;;14.77;;
59512;SDS011;45330;51.634;5.562;2022-11-28T09:52:20;30.15;;;15.82;;
59512;SDS011;45330;51.634;5.562;2022-11-28T09:54:49;28.75;;;15.00;;
59512;SDS011;45330;51.634;5.562;2022-11-28T09:57:25;29.48;;;14.55;;
59512;SDS011;45330;51.634;5.562;2022-11-28T09:59:57;28.58;;;14.68;;
59512;SDS011;45330;51.634;5.562;2022-11-28T10:03:24;29.30;;;14.82;;
59512;SDS011;45330;51.634;5.562;2022-11-28T10:10:56;32.70;;;17.60;;
59512;SDS011;45330;51.634;5.562;2022-11-28T10:18:54;27.45;;;14.18;;
59512;SDS011;45330;51.634;5.562;2022-11-28T10:21:25;28.98;;;14.45;;
59512;SDS011;45330;51.634;5.562;2022-11-28T10:23:58;27.30;;;13.50;;
59512;SDS011;45330;51.634;5.562;2022-11-28T10:26:30;27.40;;;13.45;;
59512;SDS011;45330;51.634;5.562;2022-11-28T10:29:02;26.73;;;13.32;;
59512;SDS011;45330;51.634;5.562;2022-11-28T10:31:37;25.15;;;12.07;;
59512;SDS011;45330;51.634;5.562;2022-11-28T10:34:22;26.13;;;13.30;;
59512;SDS011;45330;51.634;5.562;2022-11-28T10:37:20;26.95;;;13.63;;
59512;SDS011;45330;51.634;5.562;2022-11-28T10:39:49;26.73;;;12.77;;
59512;SDS011;45330;51.634;5.562;2022-11-28T10:42:17;25.85;;;12.82;;
59512;SDS011;45330;51.634;5.562;2022-11-28T10:50:48;25.95;;;12.85;;
59512;SDS011;45330;51.634;5.562;2022-11-28T10:56:17;26.42;;;13.05;;
59512;SDS011;45330;51.634;5.562;2022-11-28T10:58:56;26.75;;;12.57;;
59512;SDS011;45330;51.634;5.562;2022-11-28T11:01:30;28.52;;;13.95;;
59512;SDS011;45330;51.634;5.562;2022-11-28T11:03:58;27.52;;;13.50;;
59512;SDS011;45330;51.634;5.562;2022-11-28T11:06:25;29.77;;;13.35;;
59512;SDS011;45330;51.634;5.562;2022-11-28T11:08:50;26.17;;;13.35;;
59512;SDS011;45330;51.634;5.562;2022-11-28T11:11:32;29.55;;;13.88;;
59512;SDS011;45330;51.634;5.562;2022-11-28T11:14:02;29.45;;;14.00;;
59512;SDS011;45330;51.634;5.562;2022-11-28T11:16:49;27.63;;;14.23;;
59512;SDS011;45330;51.634;5.562;2022-11-28T11:24:23;29.52;;;14.40;;
59512;SDS011;45330;51.634;5.562;2022-11-28T11:26:48;29.50;;;15.05;;
59512;SDS011;45330;51.634;5.562;2022-11-28T11:29:29;29.60;;;14.13;;
59512;SDS011;45330;51.634;5.562;2022-11-28T11:31:59;28.15;;;14.20;;
59512;SDS011;45330;51.634;5.562;2022-11-28T11:34:32;31.60;;;14.13;;
59512;SDS011;45330;51.634;5.562;2022-11-28T11:37:17;30.50;;;14.75;;
59512;SDS011;45330;51.634;5.562;2022-11-28T11:39:49;31.45;;;15.52;;
59512;SDS011;45330;51.634;5.562;2022-11-28T11:42:20;30.48;;;15.68;;
59512;SDS011;45330;51.634;5.562;2022-11-28T11:44:48;31.48;;;15.90;;
59512;SDS011;45330;51.634;5.562;2022-11-28T11:47:14;31.63;;;15.73;;
59512;SDS011;45330;51.634;5.562;2022-11-28T11:52:25;33.25;;;17.55;;
59512;SDS011;45330;51.634;5.562;2022-11-28T11:54:52;36.33;;;18.50;;
59512;SDS011;45330;51.634;5.562;2022-11-28T11:57:20;36.97;;;17.77;;
59512;SDS011;45330;51.634;5.562;2022-11-28T11:59:48;35.17;;;17.00;;
59512;SDS011;45330;51.634;5.562;2022-11-28T12:02:23;36.33;;;18.83;;
59512;SDS011;45330;51.634;5.562;2022-11-28T12:04:58;37.03;;;17.55;;
59512;SDS011;45330;51.634;5.562;2022-11-28T12:07:32;39.65;;;19.17;;
59512;SDS011;45330;51.634;5.562;2022-11-28T12:10:20;38.95;;;19.27;;
59512;SDS011;45330;51.634;5.562;2022-11-28T12:12:50;39.20;;;19.93;;
59512;SDS011;45330;51.634;5.562;2022-11-28T12:21:27;38.47;;;20.45;;
59512;SDS011;45330;51.634;5.562;2022-11-28T12:24:15;41.42;;;20.08;;
59512;SDS011;45330;51.634;5.562;2022-11-28T12:26:58;44.33;;;21.88;;
59512;SDS011;45330;51.634;5.562;2022-11-28T12:29:40;43.60;;;22.05;;
59512;SDS011;45330;51.634;5.562;2022-11-28T12:40:13;49.72;;;23.90;;
59512;SDS011;45330;51.634;5.562;2022-11-28T12:45:53;51.50;;;24.88;;
59512;SDS011;45330;51.634;5.562;2022-11-28T12:48:29;56.58;;;26.05;;
59512;SDS011;45330;51.634;5.562;2022-11-28T12:51:11;54.35;;;26.17;;
59512;SDS011;45330;51.634;5.562;2022-11-28T12:56:37;50.10;;;25.73;;
59512;SDS011;45330;51.634;5.562;2022-11-28T12:59:21;61.42;;;26.77;;
59512;SDS011;45330;51.634;5.562;2022-11-28T13:12:43;63.10;;;29.42;;
59512;SDS011;45330;51.634;5.562;2022-11-28T13:21:39;68.38;;;30.92;;
59512;SDS011;45330;51.634;5.562;2022-11-28T13:23:54;68.35;;;31.10;;
59512;SDS011;45330;51.634;5.562;2022-11-28T13:32:24;62.22;;;30.73;;
59512;SDS011;45330;51.634;5.562;2022-11-28T13:34:53;62.15;;;31.25;;
59512;SDS011;45330;51.634;5.562;2022-11-28T13:37:24;60.42;;;30.45;;
59512;SDS011;45330;51.634;5.562;2022-11-28T13:45:51;63.17;;;30.65;;
59512;SDS011;45330;51.634;5.562;2022-11-28T13:53:50;72.47;;;32.75;;
59512;SDS011;45330;51.634;5.562;2022-11-28T13:59:57;68.78;;;30.23;;
59512;SDS011;45330;51.634;5.562;2022-11-28T14:03:01;67.50;;;32.17;;
59512;SDS011;45330;51.634;5.562;2022-11-28T14:07:59;68.80;;;34.15;;
59512;SDS011;45330;51.634;5.562;2022-11-28T14:10:31;70.50;;;32.90;;
59512;SDS011;45330;51.634;5.562;2022-11-28T14:13:16;71.93;;;31.48;;
59512;SDS011;45330;51.634;5.562;2022-11-28T14:26:34;74.07;;;33.05;;
59512;SDS011;45330;51.634;5.562;2022-11-28T14:29:06;75.43;;;36.08;;
59512;SDS011;45330;51.634;5.562;2022-11-28T14:31:44;74.55;;;33.00;;
59512;SDS011;45330;51.634;5.562;2022-11-28T14:39:52;68.45;;;31.58;;
59512;SDS011;45330;51.634;5.562;2022-11-28T14:42:20;76.55;;;34.05;;
59512;SDS011;45330;51.634;5.562;2022-11-28T14:48:14;73.63;;;33.78;;
59512;SDS011;45330;51.634;5.562;2022-11-28T14:50:46;71.22;;;32.92;;
59512;SDS011;45330;51.634;5.562;2022-11-28T14:56:09;71.97;;;34.10;;
59512;SDS011;45330;51.634;5.562;2022-11-28T14:58:45;70.70;;;33.80;;
59512;SDS011;45330;51.634;5.562;2022-11-28T15:01:12;65.53;;;33.03;;
59512;SDS011;45330;51.634;5.562;2022-11-28T15:03:47;70.30;;;33.55;;
59512;SDS011;45330;51.634;5.562;2022-11-28T15:06:22;66.63;;;32.58;;
59512;SDS011;45330;51.634;5.562;2022-11-28T15:12:03;69.07;;;32.40;;
59512;SDS011;45330;51.634;5.562;2022-11-28T15:14:36;70.63;;;33.90;;
59512;SDS011;45330;51.634;5.562;2022-11-28T15:17:03;64.07;;;32.30;;
59512;SDS011;45330;51.634;5.562;2022-11-28T15:19:44;71.68;;;33.35;;
59512;SDS011;45330;51.634;5.562;2022-11-28T15:22:28;68.85;;;32.05;;
59512;SDS011;45330;51.634;5.562;2022-11-28T15:24:54;68.85;;;32.40;;
59512;SDS011;45330;51.634;5.562;2022-11-28T15:27:23;66.40;;;32.35;;
59512;SDS011;45330;51.634;5.562;2022-11-28T15:29:57;67.88;;;32.03;;
59512;SDS011;45330;51.634;5.562;2022-11-28T15:32:25;67.63;;;31.02;;
59512;SDS011;45330;51.634;5.562;2022-11-28T15:34:54;70.18;;;32.45;;
59512;SDS011;45330;51.634;5.562;2022-11-28T15:37:24;63.35;;;32.88;;
59512;SDS011;45330;51.634;5.562;2022-11-28T15:39:54;68.78;;;32.05;;
59512;SDS011;45330;51.634;5.562;2022-11-28T15:45:04;68.07;;;32.42;;
59512;SDS011;45330;51.634;5.562;2022-11-28T15:47:39;67.28;;;32.20;;
59512;SDS011;45330;51.634;5.562;2022-11-28T15:50:15;60.63;;;30.48;;
59512;SDS011;45330;51.634;5.562;2022-11-28T15:52:59;61.90;;;31.65;;
59512;SDS011;45330;51.634;5.562;2022-11-28T15:55:44;67.90;;;31.23;;
59512;SDS011;45330;51.634;5.562;2022-11-28T15:58:18;67.40;;;31.58;;
59512;SDS011;45330;51.634;5.562;2022-11-28T16:00:51;65.60;;;32.65;;
59512;SDS011;45330;51.634;5.562;2022-11-28T16:03:21;68.28;;;32.22;;
59512;SDS011;45330;51.634;5.562;2022-11-28T16:05:49;62.80;;;31.95;;
59512;SDS011;45330;51.634;5.562;2022-11-28T16:08:31;67.28;;;31.35;;
59512;SDS011;45330;51.634;5.562;2022-11-28T16:11:00;68.43;;;30.80;;
59512;SDS011;45330;51.634;5.562;2022-11-28T16:13:29;68.07;;;32.05;;
59512;SDS011;45330;51.634;5.562;2022-11-28T16:15:56;69.80;;;32.72;;
59512;SDS011;45330;51.634;5.562;2022-11-28T16:18:25;63.80;;;30.83;;
59512;SDS011;45330;51.634;5.562;2022-11-28T16:20:52;66.78;;;32.60;;
59512;SDS011;45330;51.634;5.562;2022-11-28T16:23:24;68.07;;;32.15;;
59512;SDS011;45330;51.634;5.562;2022-11-28T16:28:29;61.83;;;31.20;;
59512;SDS011;45330;51.634;5.562;2022-11-28T16:33:35;70.63;;;33.03;;
59512;SDS011;45330;51.634;5.562;2022-11-28T16:38:39;69.30;;;32.30;;
59512;SDS011;45330;51.634;5.562;2022-11-28T16:41:05;70.82;;;33.25;;
59512;SDS011;45330;51.634;5.562;2022-11-28T16:43:37;65.75;;;30.27;;
59512;SDS011;45330;51.634;5.562;2022-11-28T16:46:04;62.92;;;31.65;;
59512;SDS011;45330;51.634;5.562;2022-11-28T16:48:45;61.45;;;30.60;;
59512;SDS011;45330;51.634;5.562;2022-11-28T16:53:49;78.05;;;30.35;;
59512;SDS011;45330;51.634;5.562;2022-11-28T16:59:12;61.58;;;30.33;;
59512;SDS011;45330;51.634;5.562;2022-11-28T17:01:45;57.53;;;28.65;;
59512;SDS011;45330;51.634;5.562;2022-11-28T17:06:46;61.25;;;29.40;;
59512;SDS011;45330;51.634;5.562;2022-11-28T17:09:12;57.63;;;28.77;;
59512;SDS011;45330;51.634;5.562;2022-11-28T17:11:55;62.20;;;29.58;;
59512;SDS011;45330;51.634;5.562;2022-11-28T17:14:26;55.10;;;28.40;;
59512;SDS011;45330;51.634;5.562;2022-11-28T17:16:52;58.08;;;29.40;;
59512;SDS011;45330;51.634;5.562;2022-11-28T17:19:17;57.88;;;29.83;;
59512;SDS011;45330;51.634;5.562;2022-11-28T17:21:44;58.63;;;29.02;;
59512;SDS011;45330;51.634;5.562;2022-11-28T17:24:16;61.72;;;29.17;;
59512;SDS011;45330;51.634;5.562;2022-11-28T17:26:46;55.85;;;28.15;;
59512;SDS011;45330;51.634;5.562;2022-11-28T17:29:12;68.32;;;30.20;;
59512;SDS011;45330;51.634;5.562;2022-11-28T17:31:39;61.50;;;31.17;;
59512;SDS011;45330;51.634;5.562;2022-11-28T17:34:16;61.17;;;29.38;;
59512;SDS011;45330;51.634;5.562;2022-11-28T17:36:43;60.33;;;29.00;;
59512;SDS011;45330;51.634;5.562;2022-11-28T17:39:09;54.17;;;28.30;;
59512;SDS011;45330;51.634;5.562;2022-11-28T17:41:36;60.03;;;30.25;;
59512;SDS011;45330;51.634;5.562;2022-11-28T17:44:02;59.90;;;29.42;;
59512;SDS011;45330;51.634;5.562;2022-11-28T17:46:27;63.30;;;30.48;;
59512;SDS011;45330;51.634;5.562;2022-11-28T17:48:53;58.60;;;29.10;;
59512;SDS011;45330;51.634;5.562;2022-11-28T17:51:18;54.72;;;27.40;;
59512;SDS011;45330;51.634;5.562;2022-11-28T17:53:44;62.47;;;29.20;;
59512;SDS011;45330;51.634;5.562;2022-11-28T17:56:10;55.38;;;26.90;;
59512;SDS011;45330;51.634;5.562;2022-11-28T17:58:36;61.22;;;29.98;;
59512;SDS011;45330;51.634;5.562;2022-11-28T18:01:01;54.92;;;26.85;;
59512;SDS011;45330;51.634;5.562;2022-11-28T18:03:27;61.45;;;28.67;;
59512;SDS011;45330;51.634;5.562;2022-11-28T18:05:53;53.15;;;26.33;;